Time;durP1;ratioP1;P1;durP2;ratioP2;P2;SDS_P1;SDS_P2;PMS_P1;PMS_P2;Temp;Humidity;BMP_temperature;BMP_pressure;BME280_temperature;BME280_humidity;BME280_pressure;Samples;Min_cycle;Max_cycle;Signal;HPM_P1;HPM_P2
2022/05/28 00:00:53;;;;;;;1.57;0.80;;;;;22.20;100978.00;;;;2055905;28;20723;-58
2022/05/28 00:01:53;;;;;;;2.83;1.02;;;;;22.20;100979.00;;;;2072884;28;20236;-60
2022/05/28 00:02:53;;;;;;;2.03;0.90;;;;;22.20;100966.00;;;;2080979;28;20221;-57
2022/05/28 00:03:57;;;;;;;1.50;0.90;;;;;22.20;100973.00;;;;2074597;28;20224;-56
2022/05/28 00:04:57;;;;;;;2.03;1.00;;;;;22.20;100982.00;;;;2071546;28;20633;-56
2022/05/28 00:05:58;;;;;;;1.40;0.80;;;;;22.20;100971.00;;;;2063899;28;20230;-57
2022/05/28 00:06:58;;;;;;;1.40;0.90;;;;;22.20;100963.00;;;;2075604;28;20213;-55
2022/05/28 00:07:58;;;;;;;2.53;0.97;;;;;22.20;100964.00;;;;2074154;28;20741;-55
2022/05/28 00:09:00;;;;;;;1.40;1.10;;;;;22.20;100967.00;;;;2076939;28;20214;-56
2022/05/28 00:10:00;;;;;;;1.73;0.90;;;;;22.20;100974.00;;;;2071524;28;20706;-57
2022/05/28 00:11:00;;;;;;;2.23;1.00;;;;;22.20;100967.00;;;;2055591;28;20266;-55
2022/05/28 00:12:01;;;;;;;2.23;1.10;;;;;22.20;100961.00;;;;2071670;28;20637;-55
2022/05/28 00:13:02;;;;;;;1.60;0.90;;;;;22.20;100971.00;;;;2073789;28;20206;-61
2022/05/28 00:14:03;;;;;;;2.10;1.10;;;;;22.20;100966.00;;;;2078967;28;20444;-56
2022/05/28 00:15:04;;;;;;;1.90;0.97;;;;;22.20;100966.00;;;;2071848;28;20620;-58
2022/05/28 00:16:04;;;;;;;1.73;0.90;;;;;22.20;100962.00;;;;2078202;28;20460;-59
2022/05/28 00:17:05;;;;;;;1.40;0.97;;;;;22.20;100968.00;;;;2079938;28;20455;-55
2022/05/28 00:18:05;;;;;;;2.03;1.20;;;;;22.20;100967.00;;;;2072138;28;20238;-56
2022/05/28 00:19:06;;;;;;;2.60;1.10;;;;;22.20;100963.00;;;;2078592;28;20225;-59
2022/05/28 00:20:07;;;;;;;1.33;0.80;;;;;22.20;100964.00;;;;2063735;28;20251;-57
2022/05/28 00:21:07;;;;;;;2.83;1.30;;;;;22.20;100959.00;;;;2055766;28;20219;-56
2022/05/28 00:22:08;;;;;;;2.70;0.90;;;;;22.20;100959.00;;;;2071375;28;20617;-58
2022/05/28 00:23:08;;;;;;;1.33;0.80;;;;;22.20;100968.00;;;;2078609;28;21116;-57
2022/05/28 00:24:09;;;;;;;2.33;1.10;;;;;22.20;100959.00;;;;2075136;28;20740;-56
2022/05/28 00:25:10;;;;;;;1.53;0.90;;;;;22.20;100963.00;;;;2070104;28;20206;-56
2022/05/28 00:26:11;;;;;;;3.40;0.90;;;;;22.20;100952.00;;;;2071190;28;20607;-60
2022/05/28 00:27:11;;;;;;;1.53;0.80;;;;;22.20;100950.00;;;;2070363;28;20226;-55
2022/05/28 00:28:11;;;;;;;1.80;1.10;;;;;22.20;100951.00;;;;2067155;28;20237;-56
2022/05/28 00:29:12;;;;;;;1.43;0.87;;;;;22.20;100949.00;;;;2078288;28;20209;-57
2022/05/28 00:30:14;;;;;;;1.40;0.80;;;;;22.20;100943.00;;;;2073096;28;20284;-60
2022/05/28 00:31:15;;;;;;;1.65;0.90;;;;;22.20;100946.00;;;;2063730;28;20218;-57
2022/05/28 00:32:15;;;;;;;1.90;1.00;;;;;22.20;100944.00;;;;2067452;28;20217;-57
2022/05/28 00:33:16;;;;;;;1.70;0.97;;;;;22.20;100952.00;;;;2070156;28;20218;-56
2022/05/28 00:34:17;;;;;;;1.85;0.77;;;;;22.20;100945.00;;;;2079750;28;20267;-58
2022/05/28 00:35:18;;;;;;;1.70;1.00;;;;;22.20;100949.00;;;;2078178;28;20304;-58
2022/05/28 00:36:18;;;;;;;2.00;1.08;;;;;22.20;100950.00;;;;2069297;28;20730;-57
2022/05/28 00:37:18;;;;;;;1.67;0.90;;;;;22.20;100942.00;;;;2071713;28;20260;-61
2022/05/28 00:38:19;;;;;;;1.80;0.83;;;;;22.20;100946.00;;;;2079794;28;20221;-58
2022/05/28 00:39:19;;;;;;;1.30;0.77;;;;;22.20;100942.00;;;;2079749;28;20217;-57
2022/05/28 00:40:21;;;;;;;2.50;1.13;;;;;22.20;100953.00;;;;2070828;28;20229;-57
2022/05/28 00:41:22;;;;;;;1.50;0.90;;;;;22.20;100952.00;;;;2068673;28;20305;-55
2022/05/28 00:42:22;;;;;;;2.90;1.30;;;;;22.20;100961.00;;;;2079141;28;20213;-57
2022/05/28 00:43:23;;;;;;;1.40;0.80;;;;;22.20;100941.00;;;;2076061;28;20562;-63
2022/05/28 00:44:23;;;;;;;1.73;1.13;;;;;22.20;100952.00;;;;2071526;28;20214;-63
2022/05/28 00:45:23;;;;;;;2.20;1.00;;;;;22.20;100953.00;;;;2064980;28;20219;-57
2022/05/28 00:46:25;;;;;;;2.00;0.80;;;;;22.20;100944.00;;;;2079607;28;20217;-57
2022/05/28 00:47:25;;;;;;;1.92;0.95;;;;;22.20;100947.00;;;;2065109;28;20672;-61
2022/05/28 00:48:29;;;;;;;1.47;0.80;;;;;22.20;100935.00;;;;2072778;28;20297;-58
2022/05/28 00:49:30;;;;;;;2.05;0.95;;;;;22.20;100940.00;;;;2071224;28;20237;-60
2022/05/28 00:50:30;;;;;;;2.05;0.90;;;;;22.20;100939.00;;;;2071500;28;20555;-56
2022/05/28 00:51:38;;;;;;;2.33;0.90;;;;;22.20;100925.00;;;;2062477;28;20254;-55
2022/05/28 00:52:40;;;;;;;1.77;0.82;;;;;22.20;100949.00;;;;2065308;28;20305;-57
2022/05/28 00:53:40;;;;;;;2.08;0.88;;;;;22.20;100943.00;;;;2078348;28;20206;-60
2022/05/28 00:54:43;;;;;;;1.73;0.83;;;;;22.20;100935.00;;;;2062914;28;20215;-56
2022/05/28 00:55:44;;;;;;;1.02;0.52;;;;;22.20;100936.00;;;;2054792;28;20306;-58
2022/05/28 00:56:44;;;;;;;2.03;1.00;;;;;22.20;100937.00;;;;2054930;28;20569;-58
2022/05/28 00:57:44;;;;;;;1.90;1.10;;;;;22.20;100938.00;;;;2062565;28;20203;-56
2022/05/28 00:58:45;;;;;;;1.73;0.93;;;;;22.20;100941.00;;;;2062775;28;20211;-55
2022/05/28 00:59:45;;;;;;;2.47;1.00;;;;;22.20;100932.00;;;;2054794;28;20207;-57
2022/05/28 01:00:45;;;;;;;1.43;0.70;;;;;22.20;100938.00;;;;2058218;28;20548;-59
2022/05/28 01:01:46;;;;;;;1.40;0.77;;;;;22.20;100934.00;;;;2078710;28;20210;-59
2022/05/28 01:02:55;;;;;;;1.70;0.80;;;;;22.10;100935.00;;;;2066076;28;20217;-57
2022/05/28 01:04:11;;;;;;;1.77;0.82;;;;;22.20;100938.00;;;;2063546;28;20218;-60
2022/05/28 01:05:16;;;;;;;1.48;0.90;;;;;22.20;100933.00;;;;2063579;28;20214;-57
2022/05/28 01:06:33;;;;;;;2.10;0.80;;;;;22.10;100931.00;;;;2064601;28;20274;-59
2022/05/28 01:07:46;;;;;;;1.40;0.75;;;;;22.20;100935.00;;;;2063922;28;20218;-60
2022/05/28 01:08:52;;;;;;;2.78;1.40;;;;;22.20;100939.00;;;;2055704;28;20230;-59
2022/05/28 01:10:21;;;;;;;1.80;1.00;;;;;22.10;100940.00;;;;2055952;28;20302;-60
2022/05/28 01:11:40;;;;;;;1.63;0.82;;;;;22.10;100938.00;;;;2056970;28;20706;-55
2022/05/28 01:12:47;;;;;;;1.70;0.80;;;;;22.10;100936.00;;;;2047793;28;20204;-57
2022/05/28 01:13:54;;;;;;;1.60;0.95;;;;;22.10;100936.00;;;;2056403;28;20695;-55
2022/05/28 01:15:02;;;;;;;2.15;1.00;;;;;22.10;100939.00;;;;2062335;28;20229;-60
2022/05/28 01:16:10;;;;;;;2.90;0.93;;;;;22.10;100937.00;;;;2061351;28;20230;-60
2022/05/28 01:17:24;;;;;;;1.70;0.85;;;;;22.10;100930.00;;;;2055326;28;20274;-55
2022/05/28 01:18:28;;;;;;;2.70;1.35;;;;;22.10;100924.00;;;;2064552;28;20213;-59
2022/05/28 01:19:57;;;;;;;2.63;1.00;;;;;22.10;100935.00;;;;2071006;28;20222;-59
2022/05/28 01:21:00;;;;;;;1.67;0.90;;;;;22.10;100923.00;;;;2072072;28;20217;-58
2022/05/28 01:22:13;;;;;;;1.83;0.90;;;;;22.10;100928.00;;;;2062575;28;20239;-59
2022/05/28 01:23:35;;;;;;;2.30;1.00;;;;;22.10;100918.00;;;;2068476;28;20229;-57
2022/05/28 01:25:03;;;;;;;1.20;0.82;;;;;22.20;100926.00;;;;2084387;28;20233;-58
2022/05/28 01:26:11;;;;;;;1.77;1.00;;;;;22.10;100924.00;;;;2074972;28;20710;-58
2022/05/28 01:27:16;;;;;;;1.63;0.93;;;;;22.10;100920.00;;;;2070863;28;20253;-59
2022/05/28 01:28:22;;;;;;;1.70;0.90;;;;;22.10;100895.00;;;;2071535;28;20229;-58
2022/05/28 01:29:23;;;;;;;2.33;0.82;;;;;22.10;100903.00;;;;2071338;28;20248;-60
2022/05/28 01:30:23;;;;;;;1.80;0.80;;;;;22.10;100912.00;;;;2076519;28;22192;-58
2022/05/28 01:31:23;;;;;;;1.27;0.87;;;;;22.10;100908.00;;;;2062293;28;20590;-62
2022/05/28 01:32:24;;;;;;;2.37;0.97;;;;;22.10;100922.00;;;;2063253;28;20219;-59
2022/05/28 01:33:24;;;;;;;1.50;0.80;;;;;22.10;100917.00;;;;2069243;28;20217;-56
2022/05/28 01:34:24;;;;;;;1.43;0.83;;;;;22.10;100919.00;;;;2059865;28;20226;-56
2022/05/28 01:35:26;;;;;;;1.07;0.70;;;;;22.10;100918.00;;;;2062368;28;20283;-54
2022/05/28 01:36:26;;;;;;;1.98;1.00;;;;;22.10;100920.00;;;;2046781;28;20208;-56
2022/05/28 01:37:26;;;;;;;1.70;0.97;;;;;22.10;100918.00;;;;2062632;28;20210;-56
2022/05/28 01:38:27;;;;;;;2.57;1.10;;;;;22.10;100922.00;;;;2071011;28;20217;-57
2022/05/28 01:39:27;;;;;;;1.83;0.80;;;;;22.10;100917.00;;;;2054897;28;20239;-57
2022/05/28 01:40:28;;;;;;;1.70;0.90;;;;;21.90;100919.00;;;;2070571;28;20214;-58
2022/05/28 01:41:29;;;;;;;1.10;0.70;;;;;22.10;100919.00;;;;2074261;28;20211;-60
2022/05/28 01:42:29;;;;;;;1.23;0.73;;;;;22.10;100906.00;;;;2063269;28;20214;-57
2022/05/28 01:43:33;;;;;;;1.90;1.20;;;;;22.10;100920.00;;;;2065953;28;20871;-58
2022/05/28 01:44:33;;;;;;;1.85;1.10;;;;;22.10;100913.00;;;;2071318;28;20238;-61
2022/05/28 01:45:34;;;;;;;2.07;1.10;;;;;22.10;100917.00;;;;2061528;28;21191;-60
2022/05/28 01:46:34;;;;;;;1.97;0.90;;;;;22.10;100918.00;;;;2063058;28;20301;-61
2022/05/28 01:47:34;;;;;;;1.70;0.70;;;;;22.10;100916.00;;;;2071463;28;20694;-59
2022/05/28 01:48:35;;;;;;;2.23;1.03;;;;;22.10;100917.00;;;;2067197;28;20559;-56
2022/05/28 01:49:36;;;;;;;1.67;0.83;;;;;22.10;100919.00;;;;2059963;28;20211;-55
2022/05/28 01:50:42;;;;;;;1.67;0.83;;;;;22.10;100912.00;;;;2065132;28;20532;-55
2022/05/28 01:51:46;;;;;;;1.58;0.80;;;;;22.10;100912.00;;;;2078925;28;20857;-55
2022/05/28 01:52:47;;;;;;;1.75;0.90;;;;;22.10;100914.00;;;;2077644;28;20221;-57
2022/05/28 01:55:08;;;;;;;2.58;1.13;;;;;22.10;100912.00;;;;2068941;28;20289;-57
2022/05/28 01:56:09;;;;;;;2.58;0.98;;;;;22.10;100915.00;;;;2062318;28;20913;-62
2022/05/28 01:57:10;;;;;;;1.25;0.88;;;;;22.10;100922.00;;;;2049946;28;20582;-56
2022/05/28 01:58:10;;;;;;;1.97;1.00;;;;;22.10;100906.00;;;;2046868;28;20219;-63
2022/05/28 01:59:15;;;;;;;1.70;1.03;;;;;22.10;100917.00;;;;2058041;28;20458;-62
2022/05/28 02:00:16;;;;;;;1.85;0.93;;;;;22.10;100906.00;;;;2051409;28;20310;-55
2022/05/28 02:01:16;;;;;;;1.23;0.80;;;;;22.10;100914.00;;;;2062571;28;20214;-57
2022/05/28 02:02:16;;;;;;;2.17;0.90;;;;;22.10;100910.00;;;;2062531;28;20690;-55
2022/05/28 02:03:17;;;;;;;1.90;0.90;;;;;22.10;100908.00;;;;2069373;28;20739;-56
2022/05/28 02:04:17;;;;;;;1.30;0.70;;;;;22.10;100908.00;;;;2067119;28;20257;-60
2022/05/28 02:05:17;;;;;;;2.03;0.90;;;;;22.10;100910.00;;;;2065820;28;20223;-59
2022/05/28 02:06:18;;;;;;;1.87;0.90;;;;;22.10;100878.00;;;;2078946;28;20272;-55
2022/05/28 02:07:18;;;;;;;2.70;1.33;;;;;22.10;100901.00;;;;2079108;28;20319;-57
2022/05/28 02:08:19;;;;;;;1.57;1.03;;;;;22.10;100902.00;;;;2075684;28;20264;-56
2022/05/28 02:09:22;;;;;;;1.83;0.97;;;;;22.10;100904.00;;;;2075323;28;20205;-55
2022/05/28 02:10:22;;;;;;;1.58;0.90;;;;;22.10;100908.00;;;;2071464;28;20237;-55
2022/05/28 02:11:27;;;;;;;1.90;0.90;;;;;22.10;100897.00;;;;2064521;28;20242;-57
2022/05/28 02:12:33;;;;;;;1.45;0.90;;;;;22.10;100904.00;;;;2070761;28;20345;-58
2022/05/28 02:14:01;;;;;;;2.30;0.80;;;;;22.10;100904.00;;;;2058355;28;20219;-60
2022/05/28 02:15:28;;;;;;;2.22;1.00;;;;;22.10;100912.00;;;;2073950;28;20218;-55
2022/05/28 02:16:43;;;;;;;1.42;0.85;;;;;22.10;100912.00;;;;2078744;28;20201;-56
2022/05/28 02:17:50;;;;;;;2.45;0.90;;;;;22.10;100912.00;;;;2072507;28;20221;-55
2022/05/28 02:18:55;;;;;;;1.48;0.90;;;;;22.10;100908.00;;;;2078771;28;20219;-59
2022/05/28 02:20:08;;;;;;;2.25;1.15;;;;;22.10;100910.00;;;;2068334;28;20225;-57
2022/05/28 02:21:25;;;;;;;1.63;0.90;;;;;22.10;100904.00;;;;2070044;28;20271;-58
2022/05/28 02:22:41;;;;;;;1.45;0.98;;;;;22.10;100899.00;;;;2062718;28;20210;-55
2022/05/28 02:23:47;;;;;;;1.77;1.00;;;;;22.10;100910.00;;;;2064505;28;20567;-57
2022/05/28 02:24:51;;;;;;;1.80;1.00;;;;;22.10;100908.00;;;;2068744;28;20237;-57
2022/05/28 02:25:55;;;;;;;2.30;1.10;;;;;22.10;100904.00;;;;2054282;28;21033;-56
2022/05/28 02:26:59;;;;;;;1.45;0.73;;;;;22.10;100907.00;;;;2047050;28;20213;-57
2022/05/28 02:27:59;;;;;;;1.50;0.90;;;;;22.10;100900.00;;;;2059747;28;20218;-57
2022/05/28 02:29:00;;;;;;;1.43;0.73;;;;;22.10;100896.00;;;;2067140;28;20210;-56
2022/05/28 02:30:00;;;;;;;2.03;0.90;;;;;22.10;100897.00;;;;2066727;28;20214;-58
2022/05/28 02:31:10;;;;;;;2.63;1.20;;;;;22.10;100892.00;;;;2054873;28;20286;-59
2022/05/28 02:32:16;;;;;;;1.77;1.10;;;;;22.10;100888.00;;;;2067552;28;20218;-58
2022/05/28 02:33:16;;;;;;;1.73;0.80;;;;;22.10;100892.00;;;;2078591;28;20218;-56
2022/05/28 02:34:17;;;;;;;1.17;0.80;;;;;22.10;100899.00;;;;2070644;28;20265;-58
2022/05/28 02:35:17;;;;;;;2.20;0.87;;;;;22.10;100885.00;;;;2054512;28;20346;-57
2022/05/28 02:36:18;;;;;;;2.03;1.13;;;;;22.10;100883.00;;;;2070823;28;20217;-57
2022/05/28 02:37:20;;;;;;;2.17;1.10;;;;;22.10;100886.00;;;;2077133;28;20214;-55
2022/05/28 02:38:20;;;;;;;2.58;1.00;;;;;22.10;100888.00;;;;2060913;28;20931;-55
2022/05/28 02:39:21;;;;;;;1.80;1.00;;;;;22.00;100885.00;;;;2070929;28;20214;-59
2022/05/28 02:40:21;;;;;;;1.60;0.80;;;;;22.10;100885.00;;;;2078990;28;20236;-57
2022/05/28 02:41:21;;;;;;;2.33;1.10;;;;;22.10;100887.00;;;;2079722;28;20214;-57
2022/05/28 02:42:22;;;;;;;1.20;0.80;;;;;22.10;100884.00;;;;2073083;28;20218;-55
2022/05/28 02:43:23;;;;;;;2.43;0.97;;;;;22.10;100887.00;;;;2074314;28;20277;-57
2022/05/28 02:44:23;;;;;;;1.37;0.90;;;;;22.10;100887.00;;;;2070604;28;20476;-62
2022/05/28 02:45:24;;;;;;;1.10;0.60;;;;;22.10;100884.00;;;;2071582;28;20245;-59
2022/05/28 02:46:24;;;;;;;1.87;1.37;;;;;22.00;100886.00;;;;2079287;28;20704;-54
2022/05/28 02:47:25;;;;;;;1.87;1.00;;;;;22.00;100887.00;;;;2078782;28;20206;-56
2022/05/28 02:48:25;;;;;;;1.57;0.70;;;;;22.10;100885.00;;;;2067224;28;20211;-54
2022/05/28 02:49:26;;;;;;;2.50;1.00;;;;;22.10;100884.00;;;;2071789;28;20198;-58
2022/05/28 02:50:26;;;;;;;2.60;0.93;;;;;22.10;100883.00;;;;2073192;28;20213;-56
2022/05/28 02:51:26;;;;;;;1.20;0.80;;;;;22.10;100877.00;;;;2066388;28;20230;-55
2022/05/28 02:52:27;;;;;;;1.77;1.00;;;;;22.10;100885.00;;;;2070637;28;20301;-55
2022/05/28 02:53:27;;;;;;;1.57;0.80;;;;;22.00;100883.00;;;;2070943;28;20218;-55
2022/05/28 02:54:28;;;;;;;4.00;1.13;;;;;22.10;100882.00;;;;2071254;28;20225;-58
2022/05/28 02:55:28;;;;;;;1.83;1.00;;;;;22.10;100888.00;;;;2077327;28;20267;-56
2022/05/28 02:56:29;;;;;;;2.40;0.97;;;;;22.10;100884.00;;;;2075379;28;20495;-55
2022/05/28 02:57:29;;;;;;;1.63;0.80;;;;;22.00;100884.00;;;;2079285;28;20224;-55
2022/05/28 02:58:30;;;;;;;2.50;1.10;;;;;22.00;100896.00;;;;2077643;28;20685;-55
2022/05/28 02:59:30;;;;;;;1.70;0.87;;;;;22.10;100894.00;;;;2063023;28;20848;-60
2022/05/28 03:00:30;;;;;;;1.80;0.80;;;;;22.00;100897.00;;;;2062918;28;20738;-56
2022/05/28 03:01:33;;;;;;;2.20;1.00;;;;;22.10;100887.00;;;;2071653;28;20237;-56
2022/05/28 03:02:33;;;;;;;1.25;0.80;;;;;22.00;100888.00;;;;2070814;28;20221;-56
2022/05/28 03:03:33;;;;;;;1.73;0.93;;;;;22.00;100890.00;;;;2069943;28;20210;-56
2022/05/28 03:04:34;;;;;;;1.47;0.90;;;;;22.00;100890.00;;;;2068995;28;20218;-56
2022/05/28 03:05:34;;;;;;;1.90;0.90;;;;;22.00;100894.00;;;;2069054;28;20218;-55
2022/05/28 03:06:37;;;;;;;2.00;1.10;;;;;22.10;100892.00;;;;2071316;28;20214;-55
2022/05/28 03:07:38;;;;;;;1.70;1.05;;;;;22.00;100893.00;;;;2075405;28;20235;-56
2022/05/28 03:08:38;;;;;;;1.60;0.80;;;;;22.00;100899.00;;;;2070117;28;20256;-56
2022/05/28 03:09:38;;;;;;;1.47;0.93;;;;;21.90;100895.00;;;;2077852;28;20217;-55
2022/05/28 03:10:39;;;;;;;1.67;0.90;;;;;22.00;100900.00;;;;2075770;28;20216;-55
2022/05/28 03:11:39;;;;;;;1.60;0.80;;;;;22.00;100900.00;;;;2077237;28;20216;-56
2022/05/28 03:12:39;;;;;;;2.03;1.17;;;;;22.00;100892.00;;;;2075627;28;20205;-56
2022/05/28 03:13:41;;;;;;;1.83;0.80;;;;;22.00;100893.00;;;;2062134;28;20219;-56
2022/05/28 03:14:41;;;;;;;2.05;0.90;;;;;22.00;100893.00;;;;2069375;28;20218;-57
2022/05/28 03:15:41;;;;;;;2.60;1.00;;;;;22.00;100893.00;;;;2077112;28;20581;-56
2022/05/28 03:16:42;;;;;;;1.53;0.90;;;;;22.00;100894.00;;;;2075619;28;20598;-56
2022/05/28 03:17:42;;;;;;;2.43;0.93;;;;;22.00;100892.00;;;;2070274;28;20872;-56
2022/05/28 03:18:43;;;;;;;2.10;1.10;;;;;22.00;100906.00;;;;2070619;28;20879;-55
2022/05/28 03:19:43;;;;;;;1.60;0.80;;;;;22.00;100898.00;;;;2070623;28;20934;-55
2022/05/28 03:20:43;;;;;;;1.60;0.80;;;;;22.00;100906.00;;;;2070653;28;20610;-54
2022/05/28 03:21:44;;;;;;;1.70;0.93;;;;;22.00;100897.00;;;;2070777;28;20222;-55
2022/05/28 03:22:44;;;;;;;1.60;0.80;;;;;22.00;100891.00;;;;2070450;28;20276;-54
2022/05/28 03:23:47;;;;;;;2.13;1.10;;;;;22.00;100892.00;;;;2070407;28;20222;-56
2022/05/28 03:24:48;;;;;;;2.47;1.10;;;;;22.00;100897.00;;;;2072933;28;20248;-56
2022/05/28 03:25:48;;;;;;;3.03;1.30;;;;;22.00;100891.00;;;;2077434;28;20225;-56
2022/05/28 03:26:48;;;;;;;1.47;0.80;;;;;22.00;100895.00;;;;2065005;28;20223;-55
2022/05/28 03:27:49;;;;;;;1.07;0.80;;;;;22.00;100895.00;;;;2053739;28;20793;-57
2022/05/28 03:28:49;;;;;;;2.23;0.93;;;;;22.00;100897.00;;;;2069350;28;20662;-56
2022/05/28 03:29:50;;;;;;;1.90;1.10;;;;;22.00;100897.00;;;;2061583;28;20374;-56
2022/05/28 03:30:50;;;;;;;1.80;1.00;;;;;22.00;100897.00;;;;2058262;28;20265;-57
2022/05/28 03:31:51;;;;;;;1.03;0.80;;;;;22.00;100894.00;;;;2072580;28;20222;-57
2022/05/28 03:32:51;;;;;;;2.30;0.80;;;;;22.00;100901.00;;;;2070647;28;20327;-57
2022/05/28 03:33:51;;;;;;;2.37;1.17;;;;;22.00;100897.00;;;;2073903;28;20271;-56
2022/05/28 03:34:52;;;;;;;1.47;0.90;;;;;22.00;100895.00;;;;2078374;28;20291;-56
2022/05/28 03:35:52;;;;;;;2.10;1.03;;;;;22.00;100903.00;;;;2076985;28;20232;-63
2022/05/28 03:36:52;;;;;;;1.90;1.00;;;;;22.00;100900.00;;;;2078548;28;20283;-60
2022/05/28 03:37:53;;;;;;;2.10;1.00;;;;;22.00;100898.00;;;;2077820;28;20209;-63
2022/05/28 03:38:53;;;;;;;2.67;1.00;;;;;22.00;100902.00;;;;2077919;28;20210;-59
2022/05/28 03:39:53;;;;;;;1.30;0.80;;;;;22.00;100902.00;;;;2077723;28;20205;-58
2022/05/28 03:40:54;;;;;;;1.73;1.00;;;;;22.00;100893.00;;;;2077806;28;20338;-56
2022/05/28 03:41:54;;;;;;;1.93;0.93;;;;;22.00;100903.00;;;;2078646;28;20305;-55
2022/05/28 03:42:54;;;;;;;1.63;0.80;;;;;22.00;100902.00;;;;2078255;28;20210;-54
2022/05/28 03:43:55;;;;;;;2.00;0.97;;;;;22.00;100903.00;;;;2074377;28;20718;-55
2022/05/28 03:44:55;;;;;;;2.50;1.17;;;;;22.00;100900.00;;;;2077608;28;20709;-56
2022/05/28 03:45:56;;;;;;;2.60;1.07;;;;;22.00;100900.00;;;;2076841;28;20225;-57
2022/05/28 03:46:56;;;;;;;1.30;0.93;;;;;22.00;100901.00;;;;2077510;28;20220;-56
2022/05/28 03:47:56;;;;;;;1.70;1.00;;;;;22.00;100890.00;;;;2077207;28;20209;-55
2022/05/28 03:49:20;;;;;;;1.43;0.90;;;;;22.00;100899.00;;;;2077585;28;20220;-56
2022/05/28 03:50:21;;;;;;;1.75;0.95;;;;;22.00;100895.00;;;;2077738;28;20213;-55
2022/05/28 03:51:21;;;;;;;1.20;0.90;;;;;22.00;100895.00;;;;2077806;28;20225;-56
2022/05/28 03:52:21;;;;;;;2.27;0.97;;;;;22.00;100896.00;;;;2078233;28;20205;-56
2022/05/28 03:53:22;;;;;;;3.70;0.93;;;;;22.00;100901.00;;;;2077828;28;20206;-58
2022/05/28 03:54:22;;;;;;;1.73;0.80;;;;;22.00;100898.00;;;;2077114;28;20248;-57
2022/05/28 03:55:22;;;;;;;2.20;1.20;;;;;21.90;100906.00;;;;2068152;28;20220;-57
2022/05/28 03:56:23;;;;;;;1.80;0.93;;;;;21.90;100904.00;;;;2077212;28;20217;-57
2022/05/28 03:57:25;;;;;;;1.23;0.80;;;;;22.00;100892.00;;;;2076686;28;20218;-56
2022/05/28 03:58:25;;;;;;;2.15;1.20;;;;;22.00;100895.00;;;;2069197;28;20238;-56
2022/05/28 03:59:25;;;;;;;1.87;0.87;;;;;22.00;100896.00;;;;2077275;28;20236;-57
2022/05/28 04:00:26;;;;;;;1.50;0.90;;;;;22.00;100903.00;;;;2077058;28;21602;-61
2022/05/28 04:01:26;;;;;;;1.90;1.00;;;;;22.00;100899.00;;;;2077028;28;20344;-60
2022/05/28 04:02:27;;;;;;;2.63;1.40;;;;;22.00;100904.00;;;;2077484;28;20258;-59
2022/05/28 04:03:28;;;;;;;1.77;1.00;;;;;22.00;100906.00;;;;2077237;28;20220;-56
2022/05/28 04:04:28;;;;;;;2.10;1.15;;;;;22.00;100905.00;;;;2076726;28;20210;-56
2022/05/28 04:05:29;;;;;;;1.30;0.90;;;;;22.00;100905.00;;;;2075060;28;20300;-57
2022/05/28 04:06:29;;;;;;;1.50;0.77;;;;;22.00;100908.00;;;;2069290;28;20210;-55
2022/05/28 04:07:30;;;;;;;2.43;0.90;;;;;22.00;100904.00;;;;2069497;28;20229;-56
2022/05/28 04:08:30;;;;;;;1.63;0.93;;;;;22.00;100906.00;;;;2078485;28;20213;-56
2022/05/28 04:09:30;;;;;;;2.33;1.10;;;;;22.00;100917.00;;;;2078301;28;20288;-57
2022/05/28 04:10:31;;;;;;;1.53;0.97;;;;;22.00;100904.00;;;;2072564;28;20220;-58
2022/05/28 04:11:31;;;;;;;2.30;1.07;;;;;22.00;100909.00;;;;2085779;28;20236;-56
2022/05/28 04:12:32;;;;;;;1.90;0.90;;;;;22.00;100915.00;;;;2081932;28;20275;-57
2022/05/28 04:13:32;;;;;;;1.98;1.10;;;;;22.00;100912.00;;;;2077588;28;20681;-56
2022/05/28 04:14:33;;;;;;;2.13;1.10;;;;;22.00;100903.00;;;;2077497;28;20217;-57
2022/05/28 04:15:33;;;;;;;1.53;0.80;;;;;22.00;100903.00;;;;2078051;28;20251;-56
2022/05/28 04:16:33;;;;;;;1.57;0.73;;;;;22.00;100917.00;;;;2079852;28;20221;-55
2022/05/28 04:17:34;;;;;;;1.47;1.00;;;;;22.00;100913.00;;;;2070630;28;20218;-56
2022/05/28 04:18:34;;;;;;;3.00;1.17;;;;;22.00;100910.00;;;;2071006;28;20683;-57
2022/05/28 04:19:34;;;;;;;3.77;1.40;;;;;22.00;100920.00;;;;2078892;28;20328;-57
2022/05/28 04:20:35;;;;;;;1.73;0.90;;;;;22.00;100919.00;;;;2079181;28;20751;-57
2022/05/28 04:21:36;;;;;;;1.60;0.83;;;;;22.00;100914.00;;;;2079439;28;20882;-58
2022/05/28 04:22:36;;;;;;;2.37;1.03;;;;;22.00;100922.00;;;;2070923;28;20718;-57
2022/05/28 04:23:36;;;;;;;3.00;1.30;;;;;22.00;100928.00;;;;2070913;28;20512;-57
2022/05/28 04:24:37;;;;;;;1.63;1.17;;;;;22.00;100921.00;;;;2077112;28;20232;-58
2022/05/28 04:25:37;;;;;;;1.50;0.90;;;;;22.00;100923.00;;;;2070105;28;20237;-57
2022/05/28 04:26:37;;;;;;;2.00;1.10;;;;;22.00;100921.00;;;;2071616;28;20218;-58
2022/05/28 04:27:41;;;;;;;1.40;0.80;;;;;22.00;100923.00;;;;2071357;28;20213;-57
2022/05/28 04:28:41;;;;;;;1.35;0.90;;;;;22.00;100922.00;;;;2071327;28;20210;-57
2022/05/28 04:29:42;;;;;;;1.43;0.93;;;;;22.00;100917.00;;;;2071647;28;20242;-57
2022/05/28 04:30:42;;;;;;;1.50;0.73;;;;;22.00;100918.00;;;;2071242;28;20213;-57
2022/05/28 04:31:42;;;;;;;2.03;1.20;;;;;22.00;100928.00;;;;2070444;28;20214;-57
2022/05/28 04:32:43;;;;;;;1.70;1.17;;;;;22.00;100914.00;;;;2071686;28;20297;-57
2022/05/28 04:33:43;;;;;;;2.10;1.10;;;;;22.00;100918.00;;;;2071424;28;20203;-57
2022/05/28 04:34:44;;;;;;;2.17;1.03;;;;;22.00;100914.00;;;;2070833;28;20352;-57
2022/05/28 04:35:44;;;;;;;1.90;1.17;;;;;22.00;100925.00;;;;2053201;28;20250;-57
2022/05/28 04:36:44;;;;;;;2.40;1.10;;;;;22.00;100914.00;;;;2061121;28;20262;-57
2022/05/28 04:37:45;;;;;;;1.77;1.00;;;;;22.00;100916.00;;;;2063178;28;20218;-57
2022/05/28 04:38:45;;;;;;;2.10;1.00;;;;;22.00;100917.00;;;;2071372;28;20206;-57
2022/05/28 04:39:45;;;;;;;1.30;0.83;;;;;22.00;100919.00;;;;2070936;28;20226;-57
2022/05/28 04:40:45;;;;;;;1.47;1.03;;;;;22.00;100924.00;;;;2070049;28;20328;-58
2022/05/28 04:41:46;;;;;;;1.80;1.20;;;;;22.00;100924.00;;;;2070471;28;20221;-57
2022/05/28 04:42:46;;;;;;;2.10;1.00;;;;;22.00;100924.00;;;;2071010;28;20206;-57
2022/05/28 04:43:46;;;;;;;2.30;1.30;;;;;22.00;100929.00;;;;2070076;28;20596;-57
2022/05/28 04:44:47;;;;;;;2.60;1.27;;;;;22.10;100929.00;;;;2069943;28;20214;-58
2022/05/28 04:45:47;;;;;;;2.30;1.23;;;;;22.00;100921.00;;;;2070282;28;20214;-57
2022/05/28 04:46:48;;;;;;;1.43;1.00;;;;;22.00;100929.00;;;;2071198;28;20298;-57
2022/05/28 04:47:48;;;;;;;2.73;1.00;;;;;22.00;100922.00;;;;2071078;28;20402;-57
2022/05/28 04:48:48;;;;;;;2.20;1.30;;;;;22.10;100928.00;;;;2071460;28;20229;-57
2022/05/28 04:49:48;;;;;;;2.00;1.00;;;;;22.00;100926.00;;;;2070799;28;20341;-57
2022/05/28 04:50:49;;;;;;;1.63;1.00;;;;;22.00;100922.00;;;;2071532;28;20210;-57
2022/05/28 04:51:49;;;;;;;2.40;1.37;;;;;22.00;100926.00;;;;2069051;28;20218;-57
2022/05/28 04:52:49;;;;;;;2.53;1.10;;;;;22.10;100934.00;;;;2070408;28;20212;-57
2022/05/28 04:53:50;;;;;;;1.90;1.33;;;;;22.10;100930.00;;;;2062660;28;20234;-57
2022/05/28 04:54:50;;;;;;;2.57;1.00;;;;;22.10;100932.00;;;;2069155;28;20597;-57
2022/05/28 04:55:51;;;;;;;2.67;1.33;;;;;22.10;100931.00;;;;2068895;28;20575;-57
2022/05/28 04:56:52;;;;;;;2.65;1.15;;;;;22.10;100933.00;;;;2066967;28;20211;-57
2022/05/28 04:57:53;;;;;;;1.97;1.10;;;;;22.10;100933.00;;;;2070424;28;20302;-57
2022/05/28 04:58:53;;;;;;;2.22;1.27;;;;;22.10;100929.00;;;;2071511;28;20929;-57
2022/05/28 04:59:53;;;;;;;2.33;1.10;;;;;21.90;100931.00;;;;2073703;28;20213;-57
2022/05/28 05:00:54;;;;;;;1.97;1.00;;;;;22.10;100928.00;;;;2078377;28;20271;-57
2022/05/28 05:01:54;;;;;;;1.70;0.97;;;;;22.10;100924.00;;;;2078432;28;20228;-57
2022/05/28 05:02:55;;;;;;;1.57;1.07;;;;;22.10;100936.00;;;;2078417;28;20622;-58
2022/05/28 05:03:55;;;;;;;2.67;1.50;;;;;22.10;100934.00;;;;2079353;28;20249;-58
2022/05/28 05:04:56;;;;;;;2.27;1.20;;;;;22.10;100939.00;;;;2077916;28;20232;-58
2022/05/28 05:05:56;;;;;;;2.00;1.15;;;;;22.10;100928.00;;;;2077591;28;20225;-57
2022/05/28 05:06:57;;;;;;;2.43;1.00;;;;;22.10;100940.00;;;;2077220;28;20242;-57
2022/05/28 05:07:57;;;;;;;2.17;1.03;;;;;22.10;100944.00;;;;2077952;28;20249;-57
2022/05/28 05:08:57;;;;;;;1.57;0.83;;;;;22.10;100946.00;;;;2069995;28;20218;-57